sensor_id;sensor_type;location;lat;lon;timestamp;P1;durP1;ratioP1;P2;durP2;ratioP2
39890;SDS011;25564;53.312;9.790;2022-08-19T00:01:42;7.60;;;4.20;;
39890;SDS011;25564;53.312;9.790;2022-08-19T00:04:24;8.43;;;3.92;;
39890;SDS011;25564;53.312;9.790;2022-08-19T00:09:30;7.05;;;3.60;;
39890;SDS011;25564;53.312;9.790;2022-08-19T00:12:02;6.93;;;4.18;;
39890;SDS011;25564;53.312;9.790;2022-08-19T00:14:34;6.80;;;3.75;;
39890;SDS011;25564;53.312;9.790;2022-08-19T00:17:06;7.93;;;4.32;;
39890;SDS011;25564;53.312;9.790;2022-08-19T00:19:39;6.45;;;4.25;;
39890;SDS011;25564;53.312;9.790;2022-08-19T00:22:11;9.32;;;3.90;;
39890;SDS011;25564;53.312;9.790;2022-08-19T00:24:43;5.63;;;3.28;;
39890;SDS011;25564;53.312;9.790;2022-08-19T00:27:21;7.22;;;3.72;;
39890;SDS011;25564;53.312;9.790;2022-08-19T00:29:56;9.38;;;3.90;;
39890;SDS011;25564;53.312;9.790;2022-08-19T00:32:29;6.35;;;4.00;;
39890;SDS011;25564;53.312;9.790;2022-08-19T00:35:03;6.93;;;3.65;;
39890;SDS011;25564;53.312;9.790;2022-08-19T00:37:34;7.60;;;3.60;;
39890;SDS011;25564;53.312;9.790;2022-08-19T00:40:06;6.70;;;3.70;;
39890;SDS011;25564;53.312;9.790;2022-08-19T00:42:38;4.80;;;3.60;;
39890;SDS011;25564;53.312;9.790;2022-08-19T00:45:15;10.20;;;3.80;;
39890;SDS011;25564;53.312;9.790;2022-08-19T00:47:48;4.97;;;3.75;;
39890;SDS011;25564;53.312;9.790;2022-08-19T00:50:20;5.93;;;4.18;;
39890;SDS011;25564;53.312;9.790;2022-08-19T00:52:52;7.53;;;3.30;;
39890;SDS011;25564;53.312;9.790;2022-08-19T00:55:25;7.20;;;3.97;;
39890;SDS011;25564;53.312;9.790;2022-08-19T00:58:04;6.93;;;3.85;;
39890;SDS011;25564;53.312;9.790;2022-08-19T01:00:40;5.60;;;4.05;;
39890;SDS011;25564;53.312;9.790;2022-08-19T01:03:13;6.22;;;3.42;;
39890;SDS011;25564;53.312;9.790;2022-08-19T01:05:49;7.28;;;4.22;;
39890;SDS011;25564;53.312;9.790;2022-08-19T01:08:22;7.78;;;3.97;;
39890;SDS011;25564;53.312;9.790;2022-08-19T01:10:56;7.03;;;4.00;;
39890;SDS011;25564;53.312;9.790;2022-08-19T01:13:32;7.35;;;4.07;;
39890;SDS011;25564;53.312;9.790;2022-08-19T01:16:20;6.40;;;3.95;;
39890;SDS011;25564;53.312;9.790;2022-08-19T01:18:55;7.35;;;3.83;;
39890;SDS011;25564;53.312;9.790;2022-08-19T01:21:35;4.57;;;3.35;;
39890;SDS011;25564;53.312;9.790;2022-08-19T01:24:11;7.32;;;3.63;;
39890;SDS011;25564;53.312;9.790;2022-08-19T01:26:43;6.45;;;3.60;;
39890;SDS011;25564;53.312;9.790;2022-08-19T01:29:16;9.85;;;3.85;;
39890;SDS011;25564;53.312;9.790;2022-08-19T01:31:48;6.97;;;3.65;;
39890;SDS011;25564;53.312;9.790;2022-08-19T01:34:20;5.65;;;3.47;;
39890;SDS011;25564;53.312;9.790;2022-08-19T01:36:51;6.28;;;3.58;;
39890;SDS011;25564;53.312;9.790;2022-08-19T01:39:23;6.68;;;3.75;;
39890;SDS011;25564;53.312;9.790;2022-08-19T01:41:56;7.30;;;4.30;;
39890;SDS011;25564;53.312;9.790;2022-08-19T01:44:27;6.32;;;3.45;;
39890;SDS011;25564;53.312;9.790;2022-08-19T01:46:58;8.15;;;5.22;;
39890;SDS011;25564;53.312;9.790;2022-08-19T01:49:30;5.53;;;3.65;;
39890;SDS011;25564;53.312;9.790;2022-08-19T01:52:01;7.50;;;3.55;;
39890;SDS011;25564;53.312;9.790;2022-08-19T01:54:34;7.28;;;3.75;;
39890;SDS011;25564;53.312;9.790;2022-08-19T01:57:07;6.32;;;4.07;;
39890;SDS011;25564;53.312;9.790;2022-08-19T01:59:42;9.70;;;3.88;;
39890;SDS011;25564;53.312;9.790;2022-08-19T02:02:16;8.38;;;4.53;;
39890;SDS011;25564;53.312;9.790;2022-08-19T02:04:47;9.27;;;4.30;;
39890;SDS011;25564;53.312;9.790;2022-08-19T02:07:19;11.77;;;3.97;;
39890;SDS011;25564;53.312;9.790;2022-08-19T02:09:52;7.55;;;4.05;;
39890;SDS011;25564;53.312;9.790;2022-08-19T02:12:23;7.25;;;3.97;;
39890;SDS011;25564;53.312;9.790;2022-08-19T02:14:55;9.18;;;4.30;;
39890;SDS011;25564;53.312;9.790;2022-08-19T02:17:27;6.70;;;4.13;;
39890;SDS011;25564;53.312;9.790;2022-08-19T02:19:59;7.43;;;3.63;;
39890;SDS011;25564;53.312;9.790;2022-08-19T02:22:31;7.38;;;3.95;;
39890;SDS011;25564;53.312;9.790;2022-08-19T02:25:03;5.82;;;4.30;;
39890;SDS011;25564;53.312;9.790;2022-08-19T02:27:35;8.23;;;3.95;;
39890;SDS011;25564;53.312;9.790;2022-08-19T02:30:08;6.50;;;4.20;;
39890;SDS011;25564;53.312;9.790;2022-08-19T02:32:44;7.95;;;4.45;;
39890;SDS011;25564;53.312;9.790;2022-08-19T02:35:16;6.18;;;4.00;;
39890;SDS011;25564;53.312;9.790;2022-08-19T02:37:47;8.20;;;4.50;;
39890;SDS011;25564;53.312;9.790;2022-08-19T02:40:37;8.10;;;4.30;;
39890;SDS011;25564;53.312;9.790;2022-08-19T02:43:08;8.55;;;4.93;;
39890;SDS011;25564;53.312;9.790;2022-08-19T02:45:40;10.43;;;5.05;;
39890;SDS011;25564;53.312;9.790;2022-08-19T02:48:11;11.38;;;5.60;;
39890;SDS011;25564;53.312;9.790;2022-08-19T02:50:52;8.38;;;4.85;;
39890;SDS011;25564;53.312;9.790;2022-08-19T02:53:27;10.90;;;5.40;;
39890;SDS011;25564;53.312;9.790;2022-08-19T02:55:59;12.75;;;5.90;;
39890;SDS011;25564;53.312;9.790;2022-08-19T02:58:30;9.90;;;5.20;;
39890;SDS011;25564;53.312;9.790;2022-08-19T03:01:02;9.93;;;5.80;;
39890;SDS011;25564;53.312;9.790;2022-08-19T03:03:33;11.95;;;6.45;;
39890;SDS011;25564;53.312;9.790;2022-08-19T03:06:06;10.85;;;5.88;;
39890;SDS011;25564;53.312;9.790;2022-08-19T03:08:40;9.88;;;5.10;;
39890;SDS011;25564;53.312;9.790;2022-08-19T03:11:24;14.52;;;5.68;;
39890;SDS011;25564;53.312;9.790;2022-08-19T03:13:57;13.07;;;6.72;;
39890;SDS011;25564;53.312;9.790;2022-08-19T03:16:32;11.85;;;6.65;;
39890;SDS011;25564;53.312;9.790;2022-08-19T03:19:04;12.93;;;6.15;;
39890;SDS011;25564;53.312;9.790;2022-08-19T03:21:36;11.00;;;6.18;;
39890;SDS011;25564;53.312;9.790;2022-08-19T03:24:07;16.15;;;6.65;;
39890;SDS011;25564;53.312;9.790;2022-08-19T03:26:40;17.25;;;7.32;;
39890;SDS011;25564;53.312;9.790;2022-08-19T03:29:17;14.18;;;7.53;;
39890;SDS011;25564;53.312;9.790;2022-08-19T03:32:03;17.92;;;8.63;;
39890;SDS011;25564;53.312;9.790;2022-08-19T03:34:36;16.85;;;7.78;;
39890;SDS011;25564;53.312;9.790;2022-08-19T03:37:10;12.68;;;6.57;;
39890;SDS011;25564;53.312;9.790;2022-08-19T03:39:45;19.63;;;8.07;;
39890;SDS011;25564;53.312;9.790;2022-08-19T03:42:17;15.18;;;7.78;;
39890;SDS011;25564;53.312;9.790;2022-08-19T03:45:09;18.48;;;9.00;;
39890;SDS011;25564;53.312;9.790;2022-08-19T03:47:41;17.08;;;8.02;;
39890;SDS011;25564;53.312;9.790;2022-08-19T03:50:12;21.77;;;8.65;;
39890;SDS011;25564;53.312;9.790;2022-08-19T03:52:47;15.40;;;7.63;;
39890;SDS011;25564;53.312;9.790;2022-08-19T03:55:21;14.57;;;7.22;;
39890;SDS011;25564;53.312;9.790;2022-08-19T03:57:52;19.98;;;7.80;;
39890;SDS011;25564;53.312;9.790;2022-08-19T04:00:29;19.58;;;7.70;;
39890;SDS011;25564;53.312;9.790;2022-08-19T04:03:00;18.23;;;7.63;;
39890;SDS011;25564;53.312;9.790;2022-08-19T04:05:32;14.30;;;6.53;;
39890;SDS011;25564;53.312;9.790;2022-08-19T04:08:04;18.73;;;7.53;;
39890;SDS011;25564;53.312;9.790;2022-08-19T04:10:42;17.45;;;7.78;;
39890;SDS011;25564;53.312;9.790;2022-08-19T04:13:16;16.02;;;7.32;;
39890;SDS011;25564;53.312;9.790;2022-08-19T04:15:49;18.60;;;6.72;;
39890;SDS011;25564;53.312;9.790;2022-08-19T04:18:20;15.05;;;7.07;;
39890;SDS011;25564;53.312;9.790;2022-08-19T04:20:52;15.48;;;7.20;;
39890;SDS011;25564;53.312;9.790;2022-08-19T04:23:23;13.80;;;7.47;;
39890;SDS011;25564;53.312;9.790;2022-08-19T04:25:55;13.40;;;6.65;;
39890;SDS011;25564;53.312;9.790;2022-08-19T04:28:27;16.25;;;6.82;;
39890;SDS011;25564;53.312;9.790;2022-08-19T04:30:59;11.90;;;6.95;;
39890;SDS011;25564;53.312;9.790;2022-08-19T04:33:31;13.50;;;6.20;;
39890;SDS011;25564;53.312;9.790;2022-08-19T04:36:02;14.25;;;6.43;;
39890;SDS011;25564;53.312;9.790;2022-08-19T04:38:34;19.90;;;7.20;;
39890;SDS011;25564;53.312;9.790;2022-08-19T04:41:05;13.55;;;6.45;;
39890;SDS011;25564;53.312;9.790;2022-08-19T04:43:55;12.88;;;6.63;;
39890;SDS011;25564;53.312;9.790;2022-08-19T04:49:21;12.18;;;5.38;;
39890;SDS011;25564;53.312;9.790;2022-08-19T04:51:53;15.68;;;7.22;;
39890;SDS011;25564;53.312;9.790;2022-08-19T04:54:26;15.38;;;6.88;;
39890;SDS011;25564;53.312;9.790;2022-08-19T04:57:09;13.23;;;5.95;;
39890;SDS011;25564;53.312;9.790;2022-08-19T04:59:41;14.80;;;6.65;;
39890;SDS011;25564;53.312;9.790;2022-08-19T05:02:12;15.80;;;6.97;;
39890;SDS011;25564;53.312;9.790;2022-08-19T05:04:43;17.65;;;6.78;;
39890;SDS011;25564;53.312;9.790;2022-08-19T05:07:15;16.52;;;7.03;;
39890;SDS011;25564;53.312;9.790;2022-08-19T05:09:46;22.98;;;7.45;;
39890;SDS011;25564;53.312;9.790;2022-08-19T05:12:29;17.42;;;6.20;;
39890;SDS011;25564;53.312;9.790;2022-08-19T05:15:01;17.58;;;6.75;;
39890;SDS011;25564;53.312;9.790;2022-08-19T05:17:34;11.95;;;6.35;;
39890;SDS011;25564;53.312;9.790;2022-08-19T05:20:09;15.60;;;6.83;;
39890;SDS011;25564;53.312;9.790;2022-08-19T05:22:59;14.90;;;6.28;;
39890;SDS011;25564;53.312;9.790;2022-08-19T05:25:30;16.27;;;6.93;;
39890;SDS011;25564;53.312;9.790;2022-08-19T05:28:02;12.85;;;6.28;;
39890;SDS011;25564;53.312;9.790;2022-08-19T05:30:33;13.48;;;6.75;;
39890;SDS011;25564;53.312;9.790;2022-08-19T05:33:17;10.48;;;5.63;;
39890;SDS011;25564;53.312;9.790;2022-08-19T05:35:49;13.02;;;6.60;;
39890;SDS011;25564;53.312;9.790;2022-08-19T05:38:21;15.40;;;6.65;;
39890;SDS011;25564;53.312;9.790;2022-08-19T05:40:53;13.77;;;6.90;;
39890;SDS011;25564;53.312;9.790;2022-08-19T05:43:24;12.90;;;7.05;;
39890;SDS011;25564;53.312;9.790;2022-08-19T05:45:56;14.60;;;6.18;;
39890;SDS011;25564;53.312;9.790;2022-08-19T05:48:27;11.70;;;5.70;;
39890;SDS011;25564;53.312;9.790;2022-08-19T05:51:03;10.38;;;6.05;;
39890;SDS011;25564;53.312;9.790;2022-08-19T05:53:37;14.07;;;5.82;;
39890;SDS011;25564;53.312;9.790;2022-08-19T05:56:09;11.55;;;5.57;;
39890;SDS011;25564;53.312;9.790;2022-08-19T05:58:47;14.63;;;6.18;;
39890;SDS011;25564;53.312;9.790;2022-08-19T06:01:18;13.30;;;6.65;;
39890;SDS011;25564;53.312;9.790;2022-08-19T06:03:50;10.55;;;6.13;;
39890;SDS011;25564;53.312;9.790;2022-08-19T06:06:21;12.38;;;6.57;;
39890;SDS011;25564;53.312;9.790;2022-08-19T06:08:53;16.08;;;5.78;;
39890;SDS011;25564;53.312;9.790;2022-08-19T06:11:31;11.57;;;6.97;;
39890;SDS011;25564;53.312;9.790;2022-08-19T06:14:07;13.05;;;6.45;;
39890;SDS011;25564;53.312;9.790;2022-08-19T06:16:46;15.68;;;6.30;;
39890;SDS011;25564;53.312;9.790;2022-08-19T06:19:19;21.23;;;6.65;;
39890;SDS011;25564;53.312;9.790;2022-08-19T06:21:52;14.45;;;6.13;;
39890;SDS011;25564;53.312;9.790;2022-08-19T06:24:24;20.27;;;7.65;;
39890;SDS011;25564;53.312;9.790;2022-08-19T06:26:58;14.10;;;7.82;;
39890;SDS011;25564;53.312;9.790;2022-08-19T06:29:31;16.08;;;7.50;;
39890;SDS011;25564;53.312;9.790;2022-08-19T06:32:03;18.60;;;7.38;;
39890;SDS011;25564;53.312;9.790;2022-08-19T06:34:35;13.88;;;7.40;;
39890;SDS011;25564;53.312;9.790;2022-08-19T06:37:07;14.35;;;7.38;;
39890;SDS011;25564;53.312;9.790;2022-08-19T06:39:39;15.65;;;7.55;;
39890;SDS011;25564;53.312;9.790;2022-08-19T06:42:12;16.85;;;7.78;;
39890;SDS011;25564;53.312;9.790;2022-08-19T06:44:47;18.08;;;7.78;;
39890;SDS011;25564;53.312;9.790;2022-08-19T06:47:23;17.85;;;8.30;;
39890;SDS011;25564;53.312;9.790;2022-08-19T06:49:59;16.52;;;8.10;;
39890;SDS011;25564;53.312;9.790;2022-08-19T06:52:35;19.42;;;7.20;;
39890;SDS011;25564;53.312;9.790;2022-08-19T06:55:08;18.98;;;7.93;;
39890;SDS011;25564;53.312;9.790;2022-08-19T06:57:40;20.15;;;7.38;;
39890;SDS011;25564;53.312;9.790;2022-08-19T07:00:11;15.32;;;7.47;;
39890;SDS011;25564;53.312;9.790;2022-08-19T07:02:44;16.83;;;7.70;;
39890;SDS011;25564;53.312;9.790;2022-08-19T07:05:25;18.45;;;8.25;;
39890;SDS011;25564;53.312;9.790;2022-08-19T07:07:57;19.88;;;7.95;;
39890;SDS011;25564;53.312;9.790;2022-08-19T07:10:34;20.40;;;8.10;;
39890;SDS011;25564;53.312;9.790;2022-08-19T07:13:12;15.23;;;7.45;;
39890;SDS011;25564;53.312;9.790;2022-08-19T07:15:44;20.27;;;8.43;;
39890;SDS011;25564;53.312;9.790;2022-08-19T07:18:18;16.15;;;7.93;;
39890;SDS011;25564;53.312;9.790;2022-08-19T07:20:51;20.20;;;9.38;;
39890;SDS011;25564;53.312;9.790;2022-08-19T07:23:39;13.65;;;7.55;;
39890;SDS011;25564;53.312;9.790;2022-08-19T07:26:14;14.02;;;7.63;;
39890;SDS011;25564;53.312;9.790;2022-08-19T07:28:47;15.20;;;8.77;;
39890;SDS011;25564;53.312;9.790;2022-08-19T07:31:24;13.00;;;7.68;;
39890;SDS011;25564;53.312;9.790;2022-08-19T07:34:01;16.20;;;8.45;;
39890;SDS011;25564;53.312;9.790;2022-08-19T07:36:35;18.08;;;8.02;;
39890;SDS011;25564;53.312;9.790;2022-08-19T07:39:23;18.80;;;8.45;;
39890;SDS011;25564;53.312;9.790;2022-08-19T07:42:01;18.15;;;8.98;;
39890;SDS011;25564;53.312;9.790;2022-08-19T07:44:37;19.15;;;9.02;;
39890;SDS011;25564;53.312;9.790;2022-08-19T07:47:14;16.30;;;8.20;;
39890;SDS011;25564;53.312;9.790;2022-08-19T07:50:08;16.92;;;7.70;;
39890;SDS011;25564;53.312;9.790;2022-08-19T07:52:42;17.48;;;8.57;;
39890;SDS011;25564;53.312;9.790;2022-08-19T07:55:20;14.80;;;8.45;;
39890;SDS011;25564;53.312;9.790;2022-08-19T07:58:13;18.77;;;9.88;;
39890;SDS011;25564;53.312;9.790;2022-08-19T08:00:48;21.92;;;9.02;;
39890;SDS011;25564;53.312;9.790;2022-08-19T08:03:21;23.35;;;9.13;;
39890;SDS011;25564;53.312;9.790;2022-08-19T08:06:17;19.35;;;9.50;;
39890;SDS011;25564;53.312;9.790;2022-08-19T08:09:07;15.70;;;8.40;;
39890;SDS011;25564;53.312;9.790;2022-08-19T08:11:43;21.05;;;9.70;;
39890;SDS011;25564;53.312;9.790;2022-08-19T08:14:24;18.60;;;8.90;;
39890;SDS011;25564;53.312;9.790;2022-08-19T08:17:05;24.00;;;9.10;;
39890;SDS011;25564;53.312;9.790;2022-08-19T08:19:41;19.30;;;10.07;;
39890;SDS011;25564;53.312;9.790;2022-08-19T08:22:14;20.23;;;10.13;;
39890;SDS011;25564;53.312;9.790;2022-08-19T08:25:08;15.90;;;8.73;;
39890;SDS011;25564;53.312;9.790;2022-08-19T08:27:44;14.82;;;9.02;;
39890;SDS011;25564;53.312;9.790;2022-08-19T08:30:18;13.85;;;7.70;;
39890;SDS011;25564;53.312;9.790;2022-08-19T08:32:52;13.95;;;8.50;;
39890;SDS011;25564;53.312;9.790;2022-08-19T08:35:24;15.23;;;8.50;;
39890;SDS011;25564;53.312;9.790;2022-08-19T08:37:56;15.48;;;8.02;;
39890;SDS011;25564;53.312;9.790;2022-08-19T08:46:03;16.98;;;8.32;;
39890;SDS011;25564;53.312;9.790;2022-08-19T08:48:49;14.85;;;8.75;;
39890;SDS011;25564;53.312;9.790;2022-08-19T08:51:28;15.82;;;9.05;;
39890;SDS011;25564;53.312;9.790;2022-08-19T08:54:06;16.02;;;8.63;;
39890;SDS011;25564;53.312;9.790;2022-08-19T08:56:41;15.55;;;8.50;;
39890;SDS011;25564;53.312;9.790;2022-08-19T08:59:22;18.05;;;9.98;;
39890;SDS011;25564;53.312;9.790;2022-08-19T09:01:57;17.35;;;9.13;;
39890;SDS011;25564;53.312;9.790;2022-08-19T09:04:29;19.38;;;9.90;;
39890;SDS011;25564;53.312;9.790;2022-08-19T09:07:08;18.17;;;9.25;;
39890;SDS011;25564;53.312;9.790;2022-08-19T09:13:12;17.50;;;8.77;;
39890;SDS011;25564;53.312;9.790;2022-08-19T09:15:56;17.20;;;9.40;;
39890;SDS011;25564;53.312;9.790;2022-08-19T09:18:43;14.90;;;8.80;;
39890;SDS011;25564;53.312;9.790;2022-08-19T09:21:24;17.45;;;9.40;;
39890;SDS011;25564;53.312;9.790;2022-08-19T09:24:04;16.40;;;8.80;;
39890;SDS011;25564;53.312;9.790;2022-08-19T09:26:36;17.05;;;9.60;;
39890;SDS011;25564;53.312;9.790;2022-08-19T09:29:23;14.75;;;8.18;;
39890;SDS011;25564;53.312;9.790;2022-08-19T09:31:54;13.70;;;8.48;;
39890;SDS011;25564;53.312;9.790;2022-08-19T09:34:25;15.48;;;7.80;;
39890;SDS011;25564;53.312;9.790;2022-08-19T09:36:57;11.70;;;8.20;;
39890;SDS011;25564;53.312;9.790;2022-08-19T09:39:31;13.30;;;8.23;;
39890;SDS011;25564;53.312;9.790;2022-08-19T09:42:06;15.60;;;8.50;;
39890;SDS011;25564;53.312;9.790;2022-08-19T09:44:59;9.93;;;6.95;;
39890;SDS011;25564;53.312;9.790;2022-08-19T09:47:35;15.40;;;7.63;;
39890;SDS011;25564;53.312;9.790;2022-08-19T09:52:46;11.55;;;7.72;;
39890;SDS011;25564;53.312;9.790;2022-08-19T09:55:27;12.85;;;7.65;;
39890;SDS011;25564;53.312;9.790;2022-08-19T09:58:02;12.80;;;7.68;;
39890;SDS011;25564;53.312;9.790;2022-08-19T10:00:34;11.07;;;7.57;;
39890;SDS011;25564;53.312;9.790;2022-08-19T10:03:08;15.05;;;7.88;;
39890;SDS011;25564;53.312;9.790;2022-08-19T10:05:41;15.85;;;7.65;;
39890;SDS011;25564;53.312;9.790;2022-08-19T10:08:21;12.63;;;8.20;;
39890;SDS011;25564;53.312;9.790;2022-08-19T10:10:57;13.75;;;7.72;;
39890;SDS011;25564;53.312;9.790;2022-08-19T10:13:29;11.15;;;7.47;;
39890;SDS011;25564;53.312;9.790;2022-08-19T10:16:04;10.82;;;7.47;;
39890;SDS011;25564;53.312;9.790;2022-08-19T10:18:37;13.73;;;6.67;;
39890;SDS011;25564;53.312;9.790;2022-08-19T10:21:24;12.02;;;6.93;;
39890;SDS011;25564;53.312;9.790;2022-08-19T10:24:03;10.57;;;6.63;;
39890;SDS011;25564;53.312;9.790;2022-08-19T10:26:37;11.32;;;7.00;;
39890;SDS011;25564;53.312;9.790;2022-08-19T10:29:12;11.43;;;6.55;;
39890;SDS011;25564;53.312;9.790;2022-08-19T10:32:04;11.55;;;6.93;;
39890;SDS011;25564;53.312;9.790;2022-08-19T10:34:40;12.32;;;6.97;;
39890;SDS011;25564;53.312;9.790;2022-08-19T10:37:19;11.38;;;7.30;;
39890;SDS011;25564;53.312;9.790;2022-08-19T10:40:03;11.77;;;7.00;;
39890;SDS011;25564;53.312;9.790;2022-08-19T10:42:39;14.23;;;6.78;;
39890;SDS011;25564;53.312;9.790;2022-08-19T10:45:10;12.52;;;7.60;;
39890;SDS011;25564;53.312;9.790;2022-08-19T10:47:42;14.70;;;8.18;;
39890;SDS011;25564;53.312;9.790;2022-08-19T10:50:13;12.57;;;7.57;;
39890;SDS011;25564;53.312;9.790;2022-08-19T10:53:04;13.10;;;6.53;;
39890;SDS011;25564;53.312;9.790;2022-08-19T10:55:39;12.18;;;7.05;;
39890;SDS011;25564;53.312;9.790;2022-08-19T10:58:29;10.82;;;7.15;;
39890;SDS011;25564;53.312;9.790;2022-08-19T11:01:01;10.43;;;6.70;;
39890;SDS011;25564;53.312;9.790;2022-08-19T11:03:32;17.25;;;7.70;;
39890;SDS011;25564;53.312;9.790;2022-08-19T11:06:05;9.88;;;6.47;;
39890;SDS011;25564;53.312;9.790;2022-08-19T11:08:38;11.98;;;7.43;;
39890;SDS011;25564;53.312;9.790;2022-08-19T11:11:10;12.13;;;7.30;;
39890;SDS011;25564;53.312;9.790;2022-08-19T11:13:41;12.40;;;7.43;;
39890;SDS011;25564;53.312;9.790;2022-08-19T11:16:22;11.40;;;7.05;;
39890;SDS011;25564;53.312;9.790;2022-08-19T11:18:57;13.65;;;7.22;;
39890;SDS011;25564;53.312;9.790;2022-08-19T11:21:30;10.32;;;6.65;;
39890;SDS011;25564;53.312;9.790;2022-08-19T11:24:08;12.13;;;7.15;;
39890;SDS011;25564;53.312;9.790;2022-08-19T11:26:42;11.65;;;7.28;;
39890;SDS011;25564;53.312;9.790;2022-08-19T11:29:15;12.52;;;7.05;;
39890;SDS011;25564;53.312;9.790;2022-08-19T11:31:48;15.50;;;8.13;;
39890;SDS011;25564;53.312;9.790;2022-08-19T11:34:21;12.00;;;6.80;;
39890;SDS011;25564;53.312;9.790;2022-08-19T11:36:57;10.13;;;6.05;;
39890;SDS011;25564;53.312;9.790;2022-08-19T11:39:30;11.07;;;6.95;;
39890;SDS011;25564;53.312;9.790;2022-08-19T11:42:03;13.45;;;7.53;;
39890;SDS011;25564;53.312;9.790;2022-08-19T11:44:56;9.52;;;6.57;;
39890;SDS011;25564;53.312;9.790;2022-08-19T11:47:27;11.35;;;7.53;;
39890;SDS011;25564;53.312;9.790;2022-08-19T11:49:59;11.73;;;7.25;;
39890;SDS011;25564;53.312;9.790;2022-08-19T11:52:30;11.73;;;6.50;;
39890;SDS011;25564;53.312;9.790;2022-08-19T11:55:01;11.27;;;6.50;;
39890;SDS011;25564;53.312;9.790;2022-08-19T11:57:33;9.93;;;6.13;;
39890;SDS011;25564;53.312;9.790;2022-08-19T12:00:05;8.43;;;6.60;;
39890;SDS011;25564;53.312;9.790;2022-08-19T12:02:38;8.65;;;6.40;;
39890;SDS011;25564;53.312;9.790;2022-08-19T12:05:09;9.93;;;6.32;;
39890;SDS011;25564;53.312;9.790;2022-08-19T12:07:43;11.73;;;6.22;;
39890;SDS011;25564;53.312;9.790;2022-08-19T12:10:14;11.25;;;7.03;;
39890;SDS011;25564;53.312;9.790;2022-08-19T12:12:49;9.65;;;6.88;;
39890;SDS011;25564;53.312;9.790;2022-08-19T12:15:29;8.82;;;5.90;;
39890;SDS011;25564;53.312;9.790;2022-08-19T12:18:08;9.07;;;5.68;;
39890;SDS011;25564;53.312;9.790;2022-08-19T12:20:41;9.50;;;6.45;;
39890;SDS011;25564;53.312;9.790;2022-08-19T12:23:13;9.43;;;6.80;;
39890;SDS011;25564;53.312;9.790;2022-08-19T12:25:45;7.70;;;5.65;;
39890;SDS011;25564;53.312;9.790;2022-08-19T12:28:23;14.48;;;11.43;;
39890;SDS011;25564;53.312;9.790;2022-08-19T12:30:55;8.75;;;6.85;;
39890;SDS011;25564;53.312;9.790;2022-08-19T12:33:27;10.75;;;6.55;;
39890;SDS011;25564;53.312;9.790;2022-08-19T12:36:00;9.13;;;5.85;;
39890;SDS011;25564;53.312;9.790;2022-08-19T12:38:34;9.18;;;6.30;;
39890;SDS011;25564;53.312;9.790;2022-08-19T12:41:09;8.98;;;6.47;;
39890;SDS011;25564;53.312;9.790;2022-08-19T12:43:42;9.10;;;5.82;;
39890;SDS011;25564;53.312;9.790;2022-08-19T12:46:13;11.77;;;6.13;;
39890;SDS011;25564;53.312;9.790;2022-08-19T12:48:47;11.18;;;6.68;;
39890;SDS011;25564;53.312;9.790;2022-08-19T12:51:24;9.25;;;5.78;;
39890;SDS011;25564;53.312;9.790;2022-08-19T12:53:56;10.23;;;5.85;;
39890;SDS011;25564;53.312;9.790;2022-08-19T12:56:27;8.60;;;6.15;;
39890;SDS011;25564;53.312;9.790;2022-08-19T12:59:02;10.43;;;6.47;;
39890;SDS011;25564;53.312;9.790;2022-08-19T13:01:34;9.65;;;6.53;;
39890;SDS011;25564;53.312;9.790;2022-08-19T13:04:05;8.75;;;6.38;;
39890;SDS011;25564;53.312;9.790;2022-08-19T13:06:36;9.32;;;6.60;;
39890;SDS011;25564;53.312;9.790;2022-08-19T13:09:08;7.70;;;5.88;;
39890;SDS011;25564;53.312;9.790;2022-08-19T13:11:40;8.45;;;5.88;;
39890;SDS011;25564;53.312;9.790;2022-08-19T13:14:11;7.63;;;5.70;;
39890;SDS011;25564;53.312;9.790;2022-08-19T13:16:42;11.10;;;7.28;;
39890;SDS011;25564;53.312;9.790;2022-08-19T13:19:14;9.75;;;6.43;;
39890;SDS011;25564;53.312;9.790;2022-08-19T13:21:45;8.93;;;6.25;;
39890;SDS011;25564;53.312;9.790;2022-08-19T13:24:20;9.50;;;6.97;;
39890;SDS011;25564;53.312;9.790;2022-08-19T13:26:58;11.05;;;6.72;;
39890;SDS011;25564;53.312;9.790;2022-08-19T13:29:30;11.20;;;7.50;;
39890;SDS011;25564;53.312;9.790;2022-08-19T13:32:20;14.65;;;7.40;;
39890;SDS011;25564;53.312;9.790;2022-08-19T13:35:12;9.27;;;6.03;;
39890;SDS011;25564;53.312;9.790;2022-08-19T13:37:47;10.90;;;7.78;;
39890;SDS011;25564;53.312;9.790;2022-08-19T13:40:20;11.73;;;7.85;;
39890;SDS011;25564;53.312;9.790;2022-08-19T13:42:55;10.95;;;6.60;;
39890;SDS011;25564;53.312;9.790;2022-08-19T13:45:27;9.90;;;6.70;;
39890;SDS011;25564;53.312;9.790;2022-08-19T13:48:00;9.68;;;6.03;;
39890;SDS011;25564;53.312;9.790;2022-08-19T13:50:39;10.10;;;6.53;;
39890;SDS011;25564;53.312;9.790;2022-08-19T13:53:13;9.85;;;6.43;;
39890;SDS011;25564;53.312;9.790;2022-08-19T13:55:45;9.80;;;6.40;;
39890;SDS011;25564;53.312;9.790;2022-08-19T13:58:16;29.92;;;7.15;;
39890;SDS011;25564;53.312;9.790;2022-08-19T14:00:48;8.65;;;5.85;;
39890;SDS011;25564;53.312;9.790;2022-08-19T14:03:20;8.70;;;5.43;;
39890;SDS011;25564;53.312;9.790;2022-08-19T14:05:52;9.23;;;6.35;;
39890;SDS011;25564;53.312;9.790;2022-08-19T14:08:23;7.43;;;5.45;;
39890;SDS011;25564;53.312;9.790;2022-08-19T14:10:55;8.23;;;5.85;;
39890;SDS011;25564;53.312;9.790;2022-08-19T14:13:26;6.93;;;5.25;;
39890;SDS011;25564;53.312;9.790;2022-08-19T14:15:57;9.23;;;5.63;;
39890;SDS011;25564;53.312;9.790;2022-08-19T14:18:29;8.15;;;5.53;;
39890;SDS011;25564;53.312;9.790;2022-08-19T14:21:01;9.35;;;6.03;;
39890;SDS011;25564;53.312;9.790;2022-08-19T14:23:33;8.05;;;5.80;;
39890;SDS011;25564;53.312;9.790;2022-08-19T14:26:09;7.85;;;5.72;;
39890;SDS011;25564;53.312;9.790;2022-08-19T14:28:43;8.88;;;5.40;;
39890;SDS011;25564;53.312;9.790;2022-08-19T14:31:15;8.65;;;5.07;;
39890;SDS011;25564;53.312;9.790;2022-08-19T14:33:49;7.67;;;5.80;;
39890;SDS011;25564;53.312;9.790;2022-08-19T14:36:21;6.75;;;5.20;;
39890;SDS011;25564;53.312;9.790;2022-08-19T14:38:53;7.78;;;5.38;;
39890;SDS011;25564;53.312;9.790;2022-08-19T14:41:24;7.75;;;5.85;;
39890;SDS011;25564;53.312;9.790;2022-08-19T14:43:56;8.73;;;6.25;;
39890;SDS011;25564;53.312;9.790;2022-08-19T14:46:28;6.63;;;5.20;;
39890;SDS011;25564;53.312;9.790;2022-08-19T14:49:00;5.72;;;4.70;;
39890;SDS011;25564;53.312;9.790;2022-08-19T14:51:39;6.72;;;5.65;;
39890;SDS011;25564;53.312;9.790;2022-08-19T14:54:10;10.55;;;5.90;;
39890;SDS011;25564;53.312;9.790;2022-08-19T14:56:42;7.45;;;5.53;;
39890;SDS011;25564;53.312;9.790;2022-08-19T14:59:14;9.20;;;5.53;;
39890;SDS011;25564;53.312;9.790;2022-08-19T15:01:45;10.02;;;9.02;;
39890;SDS011;25564;53.312;9.790;2022-08-19T15:04:17;10.52;;;7.07;;
39890;SDS011;25564;53.312;9.790;2022-08-19T15:06:48;8.15;;;5.63;;
39890;SDS011;25564;53.312;9.790;2022-08-19T15:09:20;8.18;;;5.00;;
39890;SDS011;25564;53.312;9.790;2022-08-19T15:11:51;7.55;;;4.93;;
39890;SDS011;25564;53.312;9.790;2022-08-19T15:14:22;8.82;;;6.13;;
39890;SDS011;25564;53.312;9.790;2022-08-19T15:16:54;7.55;;;5.68;;
39890;SDS011;25564;53.312;9.790;2022-08-19T15:19:25;8.30;;;5.90;;
39890;SDS011;25564;53.312;9.790;2022-08-19T15:21:57;18.23;;;10.57;;
39890;SDS011;25564;53.312;9.790;2022-08-19T15:24:28;8.23;;;5.57;;
39890;SDS011;25564;53.312;9.790;2022-08-19T15:27:00;10.23;;;6.90;;
39890;SDS011;25564;53.312;9.790;2022-08-19T15:29:31;7.30;;;5.47;;
39890;SDS011;25564;53.312;9.790;2022-08-19T15:32:03;8.57;;;5.82;;
39890;SDS011;25564;53.312;9.790;2022-08-19T15:34:37;8.20;;;6.32;;
39890;SDS011;25564;53.312;9.790;2022-08-19T15:37:08;8.48;;;5.82;;
39890;SDS011;25564;53.312;9.790;2022-08-19T15:39:39;8.55;;;6.03;;